If you wish to contribute or participate in the discussions about articles you are invited to join SKYbrary as a registered user

 Actions

Malabo

From SKYbrary Wiki

FGSL
Airport
ICAO: FGSL – IATA: SSG
Summary
Name Malabo
Region Africa
Territory Equatorial Guinea GQ.gif
Location Punta Europa, Bioko Island, Bioko Island
Serving Malabo
Elevation 23.165 m <br />76 ft23.165 m <br />
Coordinates 3° 45' 19.00" N, 8° 42' 31.00" E
Runways
Designator Length Width Surface ROPS
5/23 2940 m9,645.669 ft <br /> 46 m150.919 ft <br /> CON no/no


METAR
Observation FGSL 130900Z 35004KT 310V060 9999 FEW010 30/25 Q1015 NOSIG
Station Malabo/Fernando Poo
Date/Time 13 June 2021 09:00:00
Wind direction 350°
Wind speed 04 kts
Lowest cloud amount few clouds
Temperature 30°C
Dew point 25°C
Humidity 74%
QNH 1015 hPa
Weather condition n/a

Malabo Airport or Saint Isabel Airport is an airport located at Punta Europa, Bioko Island, Equatorial Guinea.

Climatology

Tropical Monsoon climate (Köppen climate classification Am)

Maps

Terrain

Loading map...

Airport Layout

Loading map...


Accidents & Serious Incidents at or in vicinity of FGSL

None on SKYbrary